createdAt,value
2023-01-07T00:02:29.121Z,11.50
2023-01-07T00:04:59.125Z,11.80
2023-01-07T00:07:33.183Z,10.80
2023-01-07T00:10:03.122Z,13.20
2023-01-07T00:12:33.395Z,9.90
2023-01-07T00:15:05.033Z,9.90
2023-01-07T00:17:37.730Z,11.40
2023-01-07T00:20:08.267Z,10.30
2023-01-07T00:22:42.971Z,11.20
2023-01-07T00:25:18.349Z,15.10
2023-01-07T00:27:50.423Z,10.10
2023-01-07T00:30:20.571Z,14.80
2023-01-07T00:33:06.457Z,13.20
2023-01-07T00:35:38.926Z,12.80
2023-01-07T00:38:11.607Z,11.80
2023-01-07T00:40:44.923Z,10.80
2023-01-07T00:43:17.408Z,20.10
2023-01-07T00:45:51.919Z,11.40
2023-01-07T00:48:24.005Z,14.20
2023-01-07T00:50:54.993Z,10.90
2023-01-07T00:53:25.598Z,12.60
2023-01-07T00:55:56.521Z,13.00
2023-01-07T00:58:27.157Z,13.60
2023-01-07T01:01:02.069Z,14.90
2023-01-07T01:03:35.426Z,12.00
2023-01-07T01:06:14.020Z,11.90
2023-01-07T01:08:48.373Z,13.60
2023-01-07T01:11:20.719Z,15.20
2023-01-07T01:13:53.060Z,17.00
2023-01-07T01:16:26.421Z,18.50
2023-01-07T01:18:59.182Z,16.20
2023-01-07T01:21:29.091Z,13.90
2023-01-07T01:23:58.822Z,12.30
2023-01-07T01:26:28.563Z,13.40
2023-01-07T01:29:00.029Z,20.80
2023-01-07T01:31:30.094Z,16.90
2023-01-07T01:34:00.678Z,14.90
2023-01-07T01:36:30.681Z,15.20
2023-01-07T01:39:05.222Z,16.00
2023-01-07T01:41:36.840Z,15.60
2023-01-07T01:44:37.135Z,16.40
2023-01-07T01:47:21.430Z,15.70
2023-01-07T01:50:29.255Z,15.00
2023-01-07T01:53:28.645Z,14.90
2023-01-07T01:56:11.243Z,15.30
2023-01-07T01:59:03.768Z,17.80
2023-01-07T02:04:14.274Z,15.90
2023-01-07T02:07:03.261Z,15.70
2023-01-07T02:09:34.205Z,15.80
2023-01-07T02:12:26.238Z,14.80
2023-01-07T02:15:46.290Z,15.40
2023-01-07T02:18:36.990Z,16.50
2023-01-07T02:21:14.921Z,17.20
2023-01-07T02:24:17.799Z,17.30
2023-01-07T02:27:23.678Z,18.30
2023-01-07T02:30:39.305Z,18.90
2023-01-07T02:33:34.639Z,19.80
2023-01-07T02:36:37.790Z,18.00
2023-01-07T02:39:22.465Z,21.80
2023-01-07T02:42:04.400Z,18.50
2023-01-07T02:48:03.414Z,18.90
2023-01-07T02:50:32.992Z,17.90
2023-01-07T02:53:02.353Z,20.10
2023-01-07T02:56:17.929Z,18.50
2023-01-07T02:59:06.088Z,21.00
2023-01-07T03:01:56.621Z,24.90
2023-01-07T03:04:47.737Z,21.60
2023-01-07T03:07:51.758Z,21.40
2023-01-07T03:10:48.195Z,20.40
2023-01-07T03:13:23.999Z,21.00
2023-01-07T03:16:14.242Z,19.50
2023-01-07T03:18:56.136Z,20.80
2023-01-07T03:21:28.604Z,19.70
2023-01-07T03:24:00.196Z,20.00
2023-01-07T03:26:41.865Z,20.20
2023-01-07T03:29:15.798Z,21.70
2023-01-07T03:31:59.341Z,20.50
2023-01-07T03:34:32.964Z,19.70
2023-01-07T03:37:14.671Z,22.20
2023-01-07T03:39:46.432Z,21.10
2023-01-07T03:42:42.669Z,23.20
2023-01-07T03:45:21.546Z,26.50
2023-01-07T03:47:55.806Z,28.30
2023-01-07T03:50:26.361Z,26.70
2023-01-07T03:52:55.774Z,27.30
2023-01-07T03:55:26.183Z,25.50
2023-01-07T03:57:58.219Z,23.20
2023-01-07T04:00:28.263Z,21.50
2023-01-07T04:03:01.787Z,25.40
2023-01-07T04:05:35.678Z,30.30
2023-01-07T04:08:05.659Z,28.50
2023-01-07T04:13:06.841Z,37.20
2023-01-07T04:15:38.008Z,35.30
2023-01-07T04:18:07.697Z,38.40
2023-01-07T04:20:37.526Z,37.80
2023-01-07T04:23:07.315Z,50.20
2023-01-07T04:25:43.071Z,38.90
2023-01-07T04:28:13.491Z,30.10
2023-01-07T04:30:43.546Z,25.50
2023-01-07T04:33:13.498Z,28.10
2023-01-07T04:35:46.840Z,29.90
2023-01-07T04:38:16.840Z,29.60
2023-01-07T04:40:46.790Z,27.40
2023-01-07T04:43:16.793Z,25.80
2023-01-07T04:45:46.437Z,26.10
2023-01-07T04:48:17.625Z,26.60
2023-01-07T04:50:48.359Z,24.60
2023-01-07T04:53:18.251Z,82.50
2023-01-07T04:55:48.430Z,52.40
2023-01-07T04:58:23.243Z,28.20
2023-01-07T05:00:58.571Z,31.70
2023-01-07T05:03:30.683Z,36.50
2023-01-07T05:06:02.707Z,31.80
2023-01-07T05:08:36.809Z,29.30
2023-01-07T05:11:06.885Z,31.00
2023-01-07T05:13:37.654Z,30.20
2023-01-07T05:16:10.867Z,31.20
2023-01-07T05:18:40.859Z,33.70
2023-01-07T05:21:11.524Z,34.80
2023-01-07T05:23:42.211Z,34.80
2023-01-07T05:26:12.323Z,34.50
2023-01-07T05:28:42.483Z,36.00
2023-01-07T05:31:14.493Z,37.60
2023-01-07T05:33:44.274Z,37.50
2023-01-07T05:36:14.534Z,36.70
2023-01-07T05:38:44.456Z,35.70
2023-01-07T05:41:16.555Z,35.60
2023-01-07T05:43:46.802Z,37.50
2023-01-07T05:46:17.114Z,34.60
2023-01-07T05:48:47.271Z,35.90
2023-01-07T05:51:16.927Z,35.50
2023-01-07T05:53:46.735Z,39.40
2023-01-07T05:56:16.791Z,40.80
2023-01-07T05:58:46.593Z,41.70
2023-01-07T06:01:16.510Z,33.10
2023-01-07T06:03:46.374Z,35.30
2023-01-07T06:06:18.137Z,36.60
2023-01-07T06:08:48.291Z,33.00
2023-01-07T06:11:20.555Z,38.30
2023-01-07T06:13:50.599Z,34.60
2023-01-07T06:16:23.237Z,42.60
2023-01-07T06:18:53.157Z,33.90
2023-01-07T06:21:24.130Z,34.30
2023-01-07T06:23:56.974Z,42.90
2023-01-07T06:26:28.961Z,33.10
2023-01-07T06:31:33.995Z,101.30
2023-01-07T06:34:04.046Z,46.70
2023-01-07T06:36:33.791Z,44.60
2023-01-07T06:39:03.983Z,30.30
2023-01-07T06:41:33.859Z,30.00
2023-01-07T06:44:06.204Z,28.30
2023-01-07T06:46:37.783Z,27.40
2023-01-07T06:49:08.147Z,26.50
2023-01-07T06:51:38.103Z,23.20
2023-01-07T06:54:08.118Z,32.20
2023-01-07T06:56:48.946Z,76.30
2023-01-07T06:59:23.705Z,75.10
2023-01-07T07:01:53.934Z,55.20
2023-01-07T07:04:23.710Z,35.40
2023-01-07T07:06:53.361Z,25.80
2023-01-07T07:09:33.461Z,103.30
2023-01-07T07:12:08.835Z,149.70
2023-01-07T07:14:41.344Z,63.30
2023-01-07T07:17:11.333Z,83.60
2023-01-07T07:19:43.843Z,37.20
2023-01-07T07:22:33.286Z,34.60
2023-01-07T07:25:08.573Z,42.10
2023-01-07T07:27:44.336Z,45.20
2023-01-07T07:30:15.912Z,32.30
2023-01-07T07:32:48.625Z,32.70
2023-01-07T07:35:25.690Z,35.60
2023-01-07T07:38:09.026Z,38.00
2023-01-07T07:40:44.401Z,37.40
2023-01-07T07:43:25.569Z,45.00
2023-01-07T07:46:03.626Z,46.50
2023-01-07T07:48:35.567Z,57.90
2023-01-07T07:51:08.102Z,69.10
2023-01-07T07:53:44.130Z,72.50
2023-01-07T07:56:17.102Z,69.20
2023-01-07T07:58:50.247Z,68.00
2023-01-07T08:01:21.943Z,75.50
2023-01-07T08:03:54.537Z,74.90
2023-01-07T08:06:29.738Z,72.60
2023-01-07T08:09:03.280Z,72.40
2023-01-07T08:11:40.830Z,63.80
2023-01-07T08:14:12.948Z,59.90
2023-01-07T08:16:45.321Z,68.40
2023-01-07T08:19:17.699Z,75.50
2023-01-07T08:21:49.585Z,64.40
2023-01-07T08:24:22.814Z,63.80
2023-01-07T08:27:07.394Z,61.60
2023-01-07T08:29:39.315Z,68.10
2023-01-07T08:32:12.755Z,56.50
2023-01-07T08:34:46.177Z,67.30
2023-01-07T08:37:21.551Z,76.30
2023-01-07T08:39:58.417Z,56.30
2023-01-07T08:42:33.333Z,63.20
2023-01-07T08:45:27.032Z,70.80
2023-01-07T08:48:10.577Z,54.20
2023-01-07T08:51:01.411Z,55.20
2023-01-07T08:53:40.164Z,58.20
2023-01-07T08:56:24.825Z,61.40
2023-01-07T08:59:09.161Z,61.40
2023-01-07T09:02:01.202Z,61.60
2023-01-07T09:04:51.107Z,67.40
2023-01-07T09:07:34.770Z,65.50
2023-01-07T09:10:22.161Z,62.00
2023-01-07T09:16:02.696Z,62.00
2023-01-07T09:18:42.843Z,60.00
2023-01-07T09:21:24.480Z,64.80
2023-01-07T09:24:21.268Z,59.20
2023-01-07T09:31:09.721Z,84.70
2023-01-07T09:34:39.204Z,58.90
2023-01-07T09:49:23.261Z,65.80
2023-01-07T09:52:55.986Z,59.60
2023-01-07T09:56:12.403Z,57.60
2023-01-07T09:59:10.818Z,56.90
2023-01-07T10:02:44.102Z,56.50
2023-01-07T10:05:51.975Z,57.50
2023-01-07T10:09:09.584Z,58.10
2023-01-07T10:12:26.006Z,51.70
2023-01-07T10:15:35.283Z,48.40
2023-01-07T10:18:23.789Z,49.70
2023-01-07T10:21:42.105Z,44.30
2023-01-07T10:24:33.675Z,47.00
2023-01-07T10:27:24.616Z,50.90
2023-01-07T10:29:59.616Z,63.40
2023-01-07T10:32:36.825Z,48.10
2023-01-07T10:35:17.777Z,51.20
2023-01-07T10:37:52.192Z,53.60
2023-01-07T10:40:44.428Z,86.40
2023-01-07T10:43:49.613Z,50.90
2023-01-07T10:47:27.161Z,42.00
2023-01-07T10:50:25.276Z,43.90
2023-01-07T10:53:10.849Z,26.20
2023-01-07T10:56:37.594Z,27.70
2023-01-07T10:59:17.607Z,26.20
2023-01-07T11:01:58.030Z,25.90
2023-01-07T11:04:28.119Z,27.30
2023-01-07T11:07:07.346Z,29.40
2023-01-07T11:09:45.892Z,25.10
2023-01-07T11:12:27.592Z,21.50
2023-01-07T11:15:00.869Z,22.10
2023-01-07T11:17:49.110Z,26.50
2023-01-07T11:20:46.264Z,24.20
2023-01-07T11:23:37.695Z,20.40
2023-01-07T11:26:14.222Z,21.10
2023-01-07T11:28:59.403Z,21.90
2023-01-07T11:32:11.726Z,22.80
2023-01-07T11:35:02.876Z,27.60
2023-01-07T11:37:35.387Z,24.20
2023-01-07T11:40:13.108Z,26.80
2023-01-07T11:43:03.818Z,44.90
2023-01-07T11:46:19.150Z,36.00
2023-01-07T11:48:47.351Z,43.60
2023-01-07T11:51:17.105Z,40.40
2023-01-07T11:53:49.904Z,28.20
2023-01-07T11:56:21.886Z,27.10
2023-01-07T11:59:13.506Z,24.90
2023-01-07T12:02:01.120Z,28.30
2023-01-07T12:04:34.051Z,30.80
2023-01-07T12:07:17.840Z,46.80
2023-01-07T12:09:47.907Z,34.90
2023-01-07T12:12:39.570Z,34.80
2023-01-07T12:15:23.557Z,41.40
2023-01-07T12:18:29.408Z,32.00
2023-01-07T12:21:33.455Z,31.50
2023-01-07T12:24:32.973Z,31.10
2023-01-07T12:27:32.354Z,29.90
2023-01-07T12:30:43.231Z,27.10
2023-01-07T12:33:44.163Z,34.60
2023-01-07T12:37:02.393Z,34.30
2023-01-07T12:39:39.155Z,90.40
2023-01-07T12:42:27.680Z,33.90
2023-01-07T12:45:05.574Z,29.30
2023-01-07T12:47:42.214Z,30.00
2023-01-07T12:50:24.087Z,49.90
2023-01-07T12:53:03.003Z,46.20
2023-01-07T12:55:47.332Z,41.00
2023-01-07T12:58:44.755Z,35.50
2023-01-07T13:01:39.000Z,26.10
2023-01-07T13:04:22.378Z,31.90
2023-01-07T13:07:16.550Z,35.30
2023-01-07T13:10:00.043Z,34.80
2023-01-07T13:12:45.478Z,33.70
2023-01-07T13:15:31.331Z,41.00
2023-01-07T13:18:21.125Z,43.00
2023-01-07T13:21:03.167Z,53.10
2023-01-07T13:26:44.449Z,69.20
2023-01-07T13:29:31.451Z,71.00
2023-01-07T13:32:47.393Z,66.30
2023-01-07T13:35:47.667Z,49.40
2023-01-07T13:38:47.703Z,40.20
2023-01-07T13:41:28.753Z,37.80
2023-01-07T13:45:05.805Z,40.70
2023-01-07T13:48:06.337Z,37.60
2023-01-07T13:51:00.041Z,42.90
2023-01-07T13:53:46.410Z,43.20
2023-01-07T13:56:18.437Z,39.10
2023-01-07T13:58:58.224Z,37.60
2023-01-07T14:01:35.290Z,37.20
2023-01-07T14:04:06.419Z,39.50
2023-01-07T14:06:43.924Z,39.50
2023-01-07T14:09:20.343Z,34.90
2023-01-07T14:12:24.969Z,32.90
2023-01-07T14:15:12.923Z,36.00
2023-01-07T14:18:06.419Z,34.50
2023-01-07T14:20:50.558Z,44.20
2023-01-07T14:23:34.039Z,42.00
2023-01-07T14:26:36.775Z,37.80
2023-01-07T14:29:32.794Z,39.10
2023-01-07T14:32:24.931Z,31.80
2023-01-07T14:35:08.380Z,33.50
2023-01-07T14:37:42.170Z,32.90
2023-01-07T14:40:26.668Z,32.10
2023-01-07T14:43:01.378Z,33.80
2023-01-07T14:45:36.418Z,39.70
2023-01-07T14:48:08.471Z,60.10
2023-01-07T14:53:57.559Z,52.40
2023-01-07T14:56:39.006Z,54.50
2023-01-07T14:59:58.624Z,34.40
2023-01-07T15:03:03.736Z,56.50
2023-01-07T15:05:52.008Z,46.80
2023-01-07T15:08:45.701Z,44.60
2023-01-07T15:11:44.786Z,45.90
2023-01-07T15:14:46.185Z,49.90
2023-01-07T15:17:18.429Z,43.30
2023-01-07T15:19:47.848Z,38.50
2023-01-07T15:22:50.499Z,45.20
2023-01-07T15:25:45.157Z,47.10
2023-01-07T15:28:48.186Z,45.70
2023-01-07T15:31:35.250Z,44.80
2023-01-07T15:34:15.729Z,51.30
2023-01-07T15:36:52.210Z,66.50
2023-01-07T15:39:32.812Z,66.20
2023-01-07T15:42:02.587Z,56.80
2023-01-07T15:44:41.355Z,65.90
2023-01-07T15:47:34.937Z,49.40
2023-01-07T15:50:18.942Z,53.70
2023-01-07T15:52:53.653Z,50.50
2023-01-07T15:55:45.903Z,43.90
2023-01-07T15:58:31.492Z,42.00
2023-01-07T16:01:02.779Z,70.20
2023-01-07T16:03:36.171Z,59.20
2023-01-07T16:06:34.048Z,47.40
2023-01-07T16:09:18.795Z,52.60
2023-01-07T16:11:48.487Z,54.80
2023-01-07T16:14:25.245Z,55.70
2023-01-07T16:17:16.255Z,52.50
2023-01-07T16:19:45.722Z,57.80
2023-01-07T16:22:21.151Z,48.90
2023-01-07T16:24:53.582Z,47.20
2023-01-07T16:27:30.279Z,52.60
2023-01-07T16:30:01.661Z,45.90
2023-01-07T16:32:33.390Z,46.70
2023-01-07T16:35:10.217Z,51.50
2023-01-07T16:37:42.152Z,50.50
2023-01-07T16:40:37.267Z,56.50
2023-01-07T16:43:38.673Z,63.20
2023-01-07T16:46:29.239Z,66.40
2023-01-07T16:49:09.235Z,59.10
2023-01-07T16:52:03.221Z,56.70
2023-01-07T16:54:37.472Z,59.30
2023-01-07T16:57:27.781Z,61.10
2023-01-07T16:59:59.817Z,65.30
2023-01-07T17:02:55.308Z,61.60
2023-01-07T17:05:29.132Z,60.30
2023-01-07T17:07:59.970Z,69.90
2023-01-07T17:10:40.704Z,77.00
2023-01-07T17:13:15.856Z,67.20
2023-01-07T17:15:45.010Z,69.10
2023-01-07T17:18:17.049Z,66.40
2023-01-07T17:23:26.186Z,71.00
2023-01-07T17:26:22.546Z,60.10
2023-01-07T17:29:13.094Z,59.10
2023-01-07T17:31:49.762Z,55.20
2023-01-07T17:34:21.484Z,52.60
2023-01-07T17:36:51.518Z,53.00
2023-01-07T17:39:22.710Z,50.90
2023-01-07T17:42:13.427Z,48.30
2023-01-07T17:44:43.576Z,50.30
2023-01-07T17:47:14.131Z,43.90
2023-01-07T17:49:44.095Z,50.90
2023-01-07T17:52:19.289Z,56.50
2023-01-07T17:54:52.328Z,57.10
2023-01-07T17:57:21.930Z,40.20
2023-01-07T17:59:51.956Z,41.70
2023-01-07T18:02:26.268Z,45.20
2023-01-07T18:04:55.648Z,39.90
2023-01-07T18:07:25.875Z,42.60
2023-01-07T18:09:55.090Z,42.00
2023-01-07T18:12:30.558Z,41.30
2023-01-07T18:15:04.175Z,42.30
2023-01-07T18:17:35.559Z,42.30
2023-01-07T18:20:08.114Z,46.70
2023-01-07T18:22:41.750Z,45.20
2023-01-07T18:25:25.025Z,53.70
2023-01-07T18:27:56.054Z,63.70
2023-01-07T18:30:25.487Z,59.70
2023-01-07T18:32:57.101Z,73.10
2023-01-07T18:35:26.772Z,59.40
2023-01-07T18:38:04.106Z,70.70
2023-01-07T18:40:39.158Z,80.00
2023-01-07T18:43:17.318Z,50.80
2023-01-07T18:45:52.806Z,55.70
2023-01-07T18:48:22.983Z,60.00
2023-01-07T18:51:03.700Z,76.30
2023-01-07T18:53:33.956Z,59.20
2023-01-07T18:56:11.621Z,69.60
2023-01-07T18:58:43.295Z,94.40
2023-01-07T19:01:14.123Z,98.80
2023-01-07T19:03:44.048Z,68.00
2023-01-07T19:06:14.503Z,85.90
2023-01-07T19:08:44.567Z,57.50
2023-01-07T19:11:15.647Z,75.00
2023-01-07T19:13:45.649Z,58.60
2023-01-07T19:16:18.594Z,54.00
2023-01-07T19:18:48.745Z,56.40
2023-01-07T19:21:22.477Z,50.00
2023-01-07T19:23:52.157Z,50.50
2023-01-07T19:26:22.540Z,41.30
2023-01-07T19:28:53.116Z,42.30
2023-01-07T19:31:23.585Z,45.10
2023-01-07T19:33:54.517Z,48.40
2023-01-07T19:36:23.817Z,55.40
2023-01-07T19:38:52.990Z,53.00
2023-01-07T19:41:23.405Z,52.40
2023-01-07T19:43:59.411Z,51.80
2023-01-07T19:46:28.857Z,51.80
2023-01-07T19:48:58.002Z,51.30
2023-01-07T19:51:29.056Z,51.20
2023-01-07T19:53:59.340Z,53.30
2023-01-07T19:56:34.002Z,54.40
2023-01-07T19:59:04.013Z,61.60
2023-01-07T20:01:33.575Z,64.70
2023-01-07T20:04:07.881Z,65.50
2023-01-07T20:06:39.332Z,64.10
2023-01-07T20:09:11.446Z,61.20
2023-01-07T20:14:14.022Z,70.30
2023-01-07T20:16:43.376Z,74.00
2023-01-07T20:19:13.740Z,78.80
2023-01-07T20:21:43.528Z,88.20
2023-01-07T20:24:13.418Z,112.70
2023-01-07T20:26:42.719Z,150.00
2023-01-07T20:29:11.980Z,109.20
2023-01-07T20:31:45.064Z,76.00
2023-01-07T20:34:14.946Z,64.50
2023-01-07T20:36:44.547Z,62.00
2023-01-07T20:39:14.115Z,59.00
2023-01-07T20:41:44.246Z,62.50
2023-01-07T20:44:13.757Z,59.90
2023-01-07T20:46:43.194Z,61.20
2023-01-07T20:49:13.182Z,59.20
2023-01-07T20:51:42.774Z,73.40
2023-01-07T20:54:13.732Z,76.30
2023-01-07T20:56:45.907Z,76.10
2023-01-07T21:01:47.302Z,76.20
2023-01-07T21:04:17.076Z,74.80
2023-01-07T21:06:54.267Z,90.00
2023-01-07T21:09:24.535Z,88.40
2023-01-07T21:11:56.962Z,80.00
2023-01-07T21:15:17.421Z,82.40
2023-01-07T21:17:47.696Z,75.60
2023-01-07T21:20:19.223Z,69.70
2023-01-07T21:22:56.615Z,71.00
2023-01-07T21:25:29.023Z,70.70
2023-01-07T21:28:13.961Z,61.40
2023-01-07T21:30:51.145Z,79.50
2023-01-07T21:33:24.168Z,70.10
2023-01-07T21:35:54.484Z,87.60
2023-01-07T21:38:27.607Z,65.50
2023-01-07T21:41:00.815Z,58.50
2023-01-07T21:43:38.908Z,69.10
2023-01-07T21:46:09.491Z,68.40
2023-01-07T21:48:43.999Z,61.30
2023-01-07T21:51:23.004Z,70.30
2023-01-07T21:53:56.013Z,64.60
2023-01-07T21:56:32.939Z,72.90
2023-01-07T21:59:05.602Z,48.80
2023-01-07T22:01:35.348Z,55.70
2023-01-07T22:04:08.054Z,63.60
2023-01-07T22:06:38.746Z,58.90
2023-01-07T22:09:14.215Z,63.60
2023-01-07T22:11:46.363Z,54.40
2023-01-07T22:14:19.258Z,55.40
2023-01-07T22:16:51.567Z,57.80
2023-01-07T22:19:20.884Z,54.70
2023-01-07T22:21:54.743Z,54.50
2023-01-07T22:24:24.135Z,54.70
2023-01-07T22:27:04.905Z,52.60
2023-01-07T22:29:37.023Z,51.60
2023-01-07T22:32:09.724Z,53.10
2023-01-07T22:34:51.826Z,50.40
2023-01-07T22:37:26.449Z,51.80
2023-01-07T22:40:05.950Z,49.20
2023-01-07T22:42:46.655Z,53.60
2023-01-07T22:45:50.709Z,47.00
2023-01-07T22:48:29.712Z,47.90
2023-01-07T22:51:20.453Z,54.70
2023-01-07T22:53:51.600Z,57.00
2023-01-07T22:56:22.735Z,76.60
2023-01-07T22:58:52.854Z,64.10
2023-01-07T23:01:23.042Z,56.00
2023-01-07T23:06:27.651Z,51.00
2023-01-07T23:09:06.133Z,54.70
2023-01-07T23:11:49.264Z,55.90
2023-01-07T23:14:22.368Z,58.20
2023-01-07T23:16:52.518Z,46.00
2023-01-07T23:19:22.612Z,45.10
2023-01-07T23:21:54.233Z,53.00
2023-01-07T23:24:23.834Z,64.10
2023-01-07T23:26:54.788Z,50.90
2023-01-07T23:29:24.221Z,53.10
2023-01-07T23:31:53.650Z,57.60
2023-01-07T23:34:25.456Z,54.80
2023-01-07T23:36:54.665Z,52.70
2023-01-07T23:39:24.046Z,53.60
2023-01-07T23:41:53.217Z,48.50
2023-01-07T23:44:22.313Z,46.60
2023-01-07T23:46:51.486Z,48.90
2023-01-07T23:49:21.851Z,47.00
2023-01-07T23:51:51.273Z,48.90
2023-01-07T23:54:20.964Z,47.50
2023-01-07T23:56:54.431Z,48.00
2023-01-07T23:59:24.041Z,47.00
